Kremlin, MT (59532)

5:31 PM MDT on July 30, 2014 (GMT -0600)
Havre City-County (KHVR) Elev 2598 ft | 48.54 °N, 109.76 °W | Change Station

Current weather conditions updated 38 minutes ago

Clear
Clear
97 °F
Feels Like 97 °F
N
9
Wind Variable Wind from ESE

Tomorrow is forecast to be nearly the same temperature as today.

Today
High -- | Low -- °F
--% Chance of Precip.
Yesterday
High -- | Low -- °F
Precip. -- in
5:52 AM 9:00 PM
Waxing Crescent, 14% visible
Pressure 29.96 in
Visibility 10.0 miles
Clouds Clear
Dew Point 31 °F
Humidity 10%
Rainfall 0.00 in
Snow Depth Not available.
UV 5 out of 12
Pollen 6.90 out of 12
Air Quality Not available.
Flu Activity Not available.
METAR KHVR 302253Z AUTO 12008KT 070V150 10SM CLR 36/M01 A3002 RMK AO2 SLP144 T03611006

More Conditions Fewer Conditions

Pressure 29.96 in
Visibility 10.0 miles
Clouds Clear
Dew Point 31 °F
Humidity 10%
Rainfall 0.00 in
Snow Depth Not available.
UV 5 out of 12
Pollen 6.90 out of 12
Air Quality Not available.
Flu Activity Not available.
METAR KHVR 302253Z AUTO 12008KT 070V150 10SM CLR 36/M01 A3002 RMK AO2 SLP144 T03611006

More Conditions Fewer Conditions

10-Day Weather Forecast

Almanac

Astronomy

Jul. 30, 2014 Rise Set
Actual Time 5:52 AM MDT 9:00 PM MDT
Civil Twilight 5:14 AM MDT 9:37 PM MDT
Nautical Twilight 4:25 AM MDT 10:26 PM MDT
Astronomical Twilight 3:24 AM MDT 11:26 PM MDT
Moon 9:48 AM MDT 10:20 PM MDT
Length of Visible Light 16h 22m
Length of Day
15h 08m
Tomorrow will be 2m 44s shorter.
Waxing Crescent, 14% of the Moon is Illuminated
Today
Waxing Crescent
Aug 3
First Quarter
Aug 10
Full
Aug 17
Last Quarter
Aug 25
New

Today's Extremes

State Highs State Lows

Community

WunderPhotos

Upload Photos

1,739,253 photos uploaded!

Nearby

Snow Depth

Station Depth Elevation
Dupuyer Creek 0 in 5750 ft
Waldron 0 in 5600 ft
Wood Creek 0 in 5960 ft
Emery Creek 0 in 4350 ft
Barker Lakes 0 in 8250 ft

Earthquake Activity

City Distance Mag. Time & Date
No recent earthquake activity has been reported nearby.
Minimum magnitude displayed is 2.5.

Coastal Water Temperatures

Place Temperature
No Stations Reporting

Nearby Weather Stations

Station Location Temp. Heat Index Dew Point Humidity Wind Precip. Elev Updated Type
MesoWest FORT ASSINIBOINE #1 , Havre, MT 95 °F 90 °F 32 °F 11% SSW  at  7 mph 0.00 in / hr 2709 ft 4:00 PM MDT MADIS
JH-Tech and Consulting, Havre, MT 93.2 °F 89 °F 40 °F 16% West  at  2.0 mph 0.00 in / hr 2841 ft 5:28 PM MDT Normal
north Hingham, Hingham, MT 94.6 °F 90 °F 38 °F 14% SSW  at  7.0 mph 0.00 in / hr 2936 ft 5:26 PM MDT Normal
Rudyard, Rudyard, MT 93.1 °F 89 °F 33 °F 12% SE  at  1.0 mph 0.00 in / hr 3137 ft 5:26 PM MDT Normal
Edwards Farm, Big Sandy, MT 94.3 °F 90 °F 34 °F 12% SE  at  7.0 mph 0.00 in / hr 2812 ft 5:31 PM MDT Rapid Fire

Show More Stations Show Fewer Stations